createdAt,value
2023-02-17T00:01:14.217Z,100817.84
2023-02-17T00:03:41.957Z,100807.75
2023-02-17T00:06:11.148Z,100815.28
2023-02-17T00:08:38.615Z,100813.84
2023-02-17T00:11:06.825Z,100814.84
2023-02-17T00:13:34.437Z,100820.31
2023-02-17T00:16:10.079Z,100814.25
2023-02-17T00:18:37.849Z,100814.09
2023-02-17T00:21:31.759Z,100812.56
2023-02-17T00:24:00.118Z,100816.84
2023-02-17T00:26:27.637Z,100812.81
2023-02-17T00:28:55.064Z,100808.94
2023-02-17T00:31:23.696Z,100800.72
2023-02-17T00:33:54.615Z,100801.97
2023-02-17T00:36:22.191Z,100803.78
2023-02-17T00:38:49.916Z,100808.41
2023-02-17T00:41:18.130Z,100815.63
2023-02-17T00:43:45.961Z,100808.06
2023-02-17T00:46:14.139Z,100801.47
2023-02-17T00:48:41.793Z,100806.00
2023-02-17T00:51:09.982Z,100812.41
2023-02-17T00:53:37.837Z,100812.09
2023-02-17T00:56:08.185Z,100817.03
2023-02-17T00:58:36.163Z,100816.81
2023-02-17T01:01:04.212Z,100805.38
2023-02-17T01:03:31.646Z,100803.09
2023-02-17T01:05:59.243Z,100803.56
2023-02-17T01:08:26.881Z,100806.72
2023-02-17T01:10:54.328Z,100799.91
2023-02-17T01:13:21.778Z,100792.75
2023-02-17T01:15:51.649Z,100800.03
2023-02-17T01:18:21.211Z,100794.16
2023-02-17T01:20:49.931Z,100793.00
2023-02-17T01:23:17.496Z,100796.75
2023-02-17T01:25:46.511Z,100798.16
2023-02-17T01:28:18.941Z,100791.12
2023-02-17T01:30:48.054Z,100794.78
2023-02-17T01:33:15.770Z,100786.09
2023-02-17T01:35:43.334Z,100781.44
2023-02-17T01:38:12.819Z,100777.72
2023-02-17T01:40:47.930Z,100776.84
2023-02-17T01:43:17.605Z,100777.38
2023-02-17T01:45:47.414Z,100777.56
2023-02-17T01:48:17.885Z,100778.12
2023-02-17T01:50:55.667Z,100780.59
2023-02-17T01:53:26.832Z,100777.84
2023-02-17T01:55:55.125Z,100769.81
2023-02-17T01:58:23.520Z,100768.87
2023-02-17T02:00:52.878Z,100767.53
2023-02-17T02:03:21.002Z,100754.12
2023-02-17T02:05:48.398Z,100756.75
2023-02-17T02:08:15.999Z,100753.25
2023-02-17T02:10:43.726Z,100761.59
2023-02-17T02:13:11.352Z,100757.47
2023-02-17T02:15:49.197Z,100771.12
2023-02-17T02:18:22.497Z,100765.31
2023-02-17T02:21:17.582Z,100763.25
2023-02-17T02:24:16.668Z,100756.69
2023-02-17T02:27:02.002Z,100759.78
2023-02-17T02:29:35.362Z,100756.34
2023-02-17T02:32:43.744Z,100752.13
2023-02-17T02:35:32.693Z,100743.34
2023-02-17T02:38:06.923Z,100747.97
2023-02-17T02:40:38.057Z,100758.44
2023-02-17T02:43:05.999Z,100757.84
2023-02-17T02:45:34.936Z,100746.00
2023-02-17T02:48:03.017Z,100749.81
2023-02-17T02:51:27.998Z,100751.34
2023-02-17T02:54:42.248Z,100748.72
2023-02-17T02:57:28.677Z,100748.94
2023-02-17T03:00:17.277Z,100745.22
2023-02-17T03:02:52.390Z,100743.22
2023-02-17T03:05:39.450Z,100737.81
2023-02-17T03:08:33.673Z,100735.03
2023-02-17T03:11:01.639Z,100733.69
2023-02-17T03:13:34.301Z,100741.81
2023-02-17T03:16:01.845Z,100748.66
2023-02-17T03:18:32.793Z,100757.38
2023-02-17T03:21:06.991Z,100764.44
2023-02-17T03:23:34.402Z,100767.19
2023-02-17T03:26:02.139Z,100766.44
2023-02-17T03:28:29.514Z,100760.91
2023-02-17T03:30:57.921Z,100767.53
2023-02-17T03:33:25.580Z,100761.47
2023-02-17T03:35:52.950Z,100769.63
2023-02-17T03:38:20.295Z,100771.91
2023-02-17T03:40:47.932Z,100771.44
2023-02-17T03:43:17.879Z,100772.34
2023-02-17T03:45:45.611Z,100763.41
2023-02-17T03:48:13.306Z,100771.03
2023-02-17T03:50:40.705Z,100770.09
2023-02-17T03:53:08.108Z,100764.69
2023-02-17T03:55:35.748Z,100765.06
2023-02-17T03:58:03.732Z,100764.44
2023-02-17T04:00:31.345Z,100769.66
2023-02-17T04:02:59.332Z,100766.41
2023-02-17T04:05:26.808Z,100754.34
2023-02-17T04:07:54.253Z,100746.59
2023-02-17T04:10:21.877Z,100746.28
2023-02-17T04:12:49.260Z,100753.91
2023-02-17T04:15:16.813Z,100761.19
2023-02-17T04:17:44.489Z,100759.06
2023-02-17T04:20:12.195Z,100756.13
2023-02-17T04:22:39.593Z,100761.31
2023-02-17T04:25:07.363Z,100753.88
2023-02-17T04:27:34.706Z,100758.56
2023-02-17T04:30:02.260Z,100747.88
2023-02-17T04:32:30.008Z,100748.59
2023-02-17T04:34:57.343Z,100737.12
2023-02-17T04:37:24.681Z,100735.47
2023-02-17T04:39:52.298Z,100744.38
2023-02-17T04:42:19.694Z,100739.84
2023-02-17T04:44:47.066Z,100748.34
2023-02-17T04:47:15.054Z,100747.78
2023-02-17T04:49:42.522Z,100754.91
2023-02-17T04:52:09.883Z,100748.34
2023-02-17T04:54:37.766Z,100748.38
2023-02-17T04:57:05.084Z,100742.44
2023-02-17T04:59:32.457Z,100736.88
2023-02-17T05:02:00.158Z,100747.28
2023-02-17T05:04:27.678Z,100754.91
2023-02-17T05:06:55.127Z,100751.56
2023-02-17T05:09:22.776Z,100755.34
2023-02-17T05:11:50.176Z,100759.72
2023-02-17T05:14:17.604Z,100761.94
2023-02-17T05:16:45.421Z,100775.97
2023-02-17T05:19:12.884Z,100775.34
2023-02-17T05:21:40.290Z,100769.37
2023-02-17T05:24:08.134Z,100770.88
2023-02-17T05:26:35.523Z,100768.53
2023-02-17T05:29:03.150Z,100764.97
2023-02-17T05:31:30.959Z,100756.06
2023-02-17T05:33:58.603Z,100747.72
2023-02-17T05:36:25.957Z,100752.50
2023-02-17T05:38:53.647Z,100749.72
2023-02-17T05:41:21.061Z,100752.13
2023-02-17T05:43:48.831Z,100754.75
2023-02-17T05:46:16.580Z,100763.16
2023-02-17T05:48:44.290Z,100758.22
2023-02-17T05:51:13.743Z,100762.50
2023-02-17T05:53:41.396Z,100764.19
2023-02-17T05:56:09.082Z,100756.22
2023-02-17T05:58:36.642Z,100757.56
2023-02-17T06:01:09.142Z,100753.69
2023-02-17T06:03:36.980Z,100755.75
2023-02-17T06:06:05.884Z,100753.72
2023-02-17T06:08:34.168Z,100751.47
2023-02-17T06:11:01.919Z,100746.84
2023-02-17T06:13:29.297Z,100765.09
2023-02-17T06:15:56.797Z,100749.88
2023-02-17T06:18:24.613Z,100761.47
2023-02-17T06:20:55.344Z,100753.13
2023-02-17T06:23:23.798Z,100758.59
2023-02-17T06:25:51.489Z,100770.78
2023-02-17T06:28:19.254Z,100770.06
2023-02-17T06:30:46.720Z,100775.22
2023-02-17T06:33:14.386Z,100772.25
2023-02-17T06:35:41.816Z,100781.62
2023-02-17T06:38:09.320Z,100774.88
2023-02-17T06:40:36.962Z,100768.66
2023-02-17T06:43:06.592Z,100766.28
2023-02-17T06:45:34.531Z,100769.19
2023-02-17T06:48:02.360Z,100777.62
2023-02-17T06:50:29.839Z,100773.59
2023-02-17T06:52:57.207Z,100770.97
2023-02-17T06:55:24.916Z,100769.72
2023-02-17T06:57:52.314Z,100763.78
2023-02-17T07:00:20.684Z,100761.84
2023-02-17T07:02:48.567Z,100761.94
2023-02-17T07:05:16.046Z,100767.47
2023-02-17T07:07:43.449Z,100764.88
2023-02-17T07:10:11.509Z,100767.16
2023-02-17T07:12:38.963Z,100760.13
2023-02-17T07:15:07.535Z,100765.28
2023-02-17T07:17:35.976Z,100764.50
2023-02-17T07:20:03.414Z,100758.31
2023-02-17T07:22:30.861Z,100761.78
2023-02-17T07:24:58.562Z,100767.09
2023-02-17T07:27:26.068Z,100763.66
2023-02-17T07:29:53.472Z,100763.16
2023-02-17T07:32:21.188Z,100762.81
2023-02-17T07:34:48.598Z,100755.87
2023-02-17T07:37:16.088Z,100754.78
2023-02-17T07:39:43.783Z,100757.44
2023-02-17T07:42:11.593Z,100752.63
2023-02-17T07:44:39.677Z,100748.38
2023-02-17T07:47:07.451Z,100745.94
2023-02-17T07:49:34.913Z,100745.94
2023-02-17T07:52:04.931Z,100749.13
2023-02-17T07:54:32.925Z,100740.38
2023-02-17T07:57:00.594Z,100739.78
2023-02-17T07:59:28.100Z,100737.75
2023-02-17T08:01:55.787Z,100734.09
2023-02-17T08:04:23.529Z,100734.16
2023-02-17T08:06:50.989Z,100741.06
2023-02-17T08:09:37.010Z,100737.47
2023-02-17T08:12:23.386Z,100747.84
2023-02-17T08:14:50.782Z,100742.81
2023-02-17T08:17:18.447Z,100750.78
2023-02-17T08:19:48.918Z,100748.53
2023-02-17T08:22:18.507Z,100744.34
2023-02-17T08:24:46.410Z,100743.41
2023-02-17T08:27:15.081Z,100739.31
2023-02-17T08:29:43.015Z,100733.56
2023-02-17T08:32:11.143Z,100738.87
2023-02-17T08:34:38.627Z,100739.84
2023-02-17T08:37:07.055Z,100738.25
2023-02-17T08:39:35.735Z,100746.25
2023-02-17T08:42:05.781Z,100750.75
2023-02-17T08:44:35.982Z,100753.94
2023-02-17T08:47:05.162Z,100749.66
2023-02-17T08:49:33.179Z,100760.03
2023-02-17T08:52:00.966Z,100750.50
2023-02-17T08:54:28.785Z,100753.75
2023-02-17T08:56:56.532Z,100743.62
2023-02-17T08:59:24.029Z,100747.09
2023-02-17T09:01:51.866Z,100746.06
2023-02-17T09:04:19.441Z,100742.72
2023-02-17T09:06:49.539Z,100747.16
2023-02-17T09:09:19.125Z,100749.00
2023-02-17T09:11:46.643Z,100744.63
2023-02-17T09:14:14.039Z,100742.91
2023-02-17T09:16:41.864Z,100738.47
2023-02-17T09:19:09.278Z,100739.69
2023-02-17T09:21:37.016Z,100728.22
2023-02-17T09:24:05.041Z,100732.56
2023-02-17T09:26:34.985Z,100732.72
2023-02-17T09:29:04.234Z,100728.44
2023-02-17T09:31:32.267Z,100725.03
2023-02-17T09:34:00.296Z,100732.97
2023-02-17T09:36:30.937Z,100723.47
2023-02-17T09:38:59.243Z,100734.81
2023-02-17T09:41:34.533Z,100733.91
2023-02-17T09:44:02.729Z,100733.06
2023-02-17T09:46:49.742Z,100730.50
2023-02-17T09:49:27.061Z,100728.69
2023-02-17T09:52:07.951Z,100727.81
2023-02-17T09:54:41.743Z,100712.94
2023-02-17T09:57:13.253Z,100709.47
2023-02-17T09:59:45.333Z,100711.31
2023-02-17T10:02:19.639Z,100718.22
2023-02-17T10:04:48.489Z,100713.16
2023-02-17T10:07:27.850Z,100708.63
2023-02-17T10:10:21.452Z,100706.12
2023-02-17T10:12:51.768Z,100706.00
2023-02-17T10:15:24.572Z,100700.78
2023-02-17T10:17:54.755Z,100696.44
2023-02-17T10:20:41.705Z,100685.25
2023-02-17T10:23:35.561Z,100696.66
2023-02-17T10:26:03.382Z,100675.78
2023-02-17T10:28:39.840Z,100684.47
2023-02-17T10:31:15.747Z,100685.38
2023-02-17T10:34:03.418Z,100679.34
2023-02-17T10:36:38.125Z,100671.56
2023-02-17T10:39:22.750Z,100677.69
2023-02-17T10:41:51.782Z,100669.00
2023-02-17T10:44:23.591Z,100673.38
2023-02-17T10:46:53.257Z,100662.94
2023-02-17T10:49:29.988Z,100652.47
2023-02-17T10:52:13.715Z,100649.03
2023-02-17T10:54:53.042Z,100647.28
2023-02-17T10:57:22.086Z,100646.41
2023-02-17T10:59:50.533Z,100639.44
2023-02-17T11:02:23.246Z,100642.06
2023-02-17T11:04:54.939Z,100638.56
2023-02-17T11:07:32.768Z,100628.09
2023-02-17T11:10:03.192Z,100635.94
2023-02-17T11:12:40.392Z,100634.19
2023-02-17T11:15:20.156Z,100632.47
2023-02-17T11:17:48.103Z,100624.63
2023-02-17T11:20:15.799Z,100628.09
2023-02-17T11:22:59.214Z,100620.22
2023-02-17T11:25:35.507Z,100619.38
2023-02-17T11:28:05.980Z,100609.78
2023-02-17T11:30:48.856Z,100608.06
2023-02-17T11:33:22.626Z,100601.91
2023-02-17T11:35:55.408Z,100609.75
2023-02-17T11:38:26.437Z,100594.06
2023-02-17T11:40:59.802Z,100595.81
2023-02-17T11:43:29.650Z,100589.69
2023-02-17T11:46:05.686Z,100592.28
2023-02-17T11:49:03.990Z,100585.31
2023-02-17T11:51:46.610Z,100589.66
2023-02-17T11:54:41.607Z,100585.31
2023-02-17T11:57:39.350Z,100586.13
2023-02-17T12:00:22.593Z,100576.53
2023-02-17T12:03:18.259Z,100567.81
2023-02-17T12:05:59.058Z,100578.38
2023-02-17T12:08:55.823Z,100574.06
2023-02-17T12:11:41.184Z,100563.53
2023-02-17T12:14:31.449Z,100556.63
2023-02-17T12:17:40.480Z,100546.13
2023-02-17T12:20:41.643Z,100541.78
2023-02-17T12:23:30.740Z,100533.00
2023-02-17T12:26:04.595Z,100530.41
2023-02-17T12:28:50.509Z,100530.38
2023-02-17T12:31:39.572Z,100530.38
2023-02-17T12:34:17.954Z,100526.88
2023-02-17T12:36:49.944Z,100533.00
2023-02-17T12:39:19.571Z,100533.00
2023-02-17T12:42:12.853Z,100539.94
2023-02-17T12:44:49.889Z,100539.97
2023-02-17T12:47:41.329Z,100538.19
2023-02-17T12:50:21.504Z,100544.31
2023-02-17T12:52:52.815Z,100543.38
2023-02-17T12:55:32.605Z,100539.06
2023-02-17T12:58:07.820Z,100536.44
2023-02-17T13:00:45.079Z,100540.75
2023-02-17T13:03:13.362Z,100535.41
2023-02-17T13:05:42.511Z,100531.97
2023-02-17T13:08:21.761Z,100529.38
2023-02-17T13:11:04.419Z,100533.78
2023-02-17T13:13:34.566Z,100530.31
2023-02-17T13:16:11.583Z,100526.75
2023-02-17T13:18:50.759Z,100526.75
2023-02-17T13:21:28.860Z,100519.78
2023-02-17T13:24:31.477Z,100516.31
2023-02-17T13:27:12.032Z,100518.06
2023-02-17T13:29:39.633Z,100525.13
2023-02-17T13:32:11.973Z,100532.16
2023-02-17T13:34:46.278Z,100522.50
2023-02-17T13:37:32.484Z,100511.19
2023-02-17T13:40:02.804Z,100501.53
2023-02-17T13:42:39.429Z,100506.69
2023-02-17T13:45:14.752Z,100501.41
2023-02-17T13:47:43.208Z,100488.25
2023-02-17T13:50:35.940Z,100495.28
2023-02-17T13:53:22.245Z,100490.06
2023-02-17T13:55:49.709Z,100487.47
2023-02-17T13:58:22.824Z,100483.03
2023-02-17T14:00:50.433Z,100482.91
2023-02-17T14:03:30.015Z,100472.53
2023-02-17T14:05:59.496Z,100476.78
2023-02-17T14:08:36.224Z,100477.66
2023-02-17T14:11:09.180Z,100474.13
2023-02-17T14:13:38.243Z,100480.16
2023-02-17T14:16:09.502Z,100478.44
2023-02-17T14:18:44.653Z,100474.03
2023-02-17T14:21:24.485Z,100479.28
2023-02-17T14:23:54.214Z,100469.84
2023-02-17T14:26:46.496Z,100475.97
2023-02-17T14:29:15.760Z,100476.94
2023-02-17T14:31:47.918Z,100475.97
2023-02-17T14:34:27.743Z,100468.81
2023-02-17T14:36:58.098Z,100469.84
2023-02-17T14:39:25.921Z,100474.34
2023-02-17T14:41:53.930Z,100466.50
2023-02-17T14:44:21.597Z,100456.97
2023-02-17T14:46:49.407Z,100459.66
2023-02-17T14:49:16.839Z,100456.12
2023-02-17T14:51:44.251Z,100458.78
2023-02-17T14:54:16.722Z,100452.66
2023-02-17T14:57:05.351Z,100449.12
2023-02-17T14:59:33.103Z,100450.94
2023-02-17T15:02:00.754Z,100437.84
2023-02-17T15:04:28.255Z,100438.78
2023-02-17T15:06:56.018Z,100436.13
2023-02-17T15:09:28.551Z,100428.22
2023-02-17T15:11:56.672Z,100424.66
2023-02-17T15:14:24.104Z,100418.56
2023-02-17T15:16:51.525Z,100412.50
2023-02-17T15:19:19.265Z,100411.59
2023-02-17T15:21:49.604Z,100412.47
2023-02-17T15:24:23.247Z,100421.25
2023-02-17T15:26:51.466Z,100409.13
2023-02-17T15:29:22.309Z,100399.53
2023-02-17T15:31:51.162Z,100400.41
2023-02-17T15:34:22.789Z,100403.91
2023-02-17T15:36:50.221Z,100401.31
2023-02-17T15:39:19.186Z,100404.81
2023-02-17T15:41:47.910Z,100401.31
2023-02-17T15:44:18.136Z,100402.97
2023-02-17T15:46:46.243Z,100411.78
2023-02-17T15:49:14.133Z,100417.94
2023-02-17T15:51:41.631Z,100421.44
2023-02-17T15:54:09.202Z,100433.69
2023-02-17T15:56:49.202Z,100437.19
2023-02-17T15:59:24.862Z,100434.59
2023-02-17T16:01:56.051Z,100425.84
2023-02-17T16:04:23.808Z,100428.53
2023-02-17T16:06:51.211Z,100425.94
2023-02-17T16:09:20.606Z,100412.00
2023-02-17T16:11:53.226Z,100407.66
2023-02-17T16:14:28.449Z,100410.25
2023-02-17T16:16:56.668Z,100405.00
2023-02-17T16:19:24.770Z,100402.44
2023-02-17T16:21:53.175Z,100405.06
2023-02-17T16:24:20.839Z,100398.06
2023-02-17T16:26:48.497Z,100401.56
2023-02-17T16:29:21.049Z,100411.13
2023-02-17T16:31:49.409Z,100401.53
2023-02-17T16:34:22.174Z,100418.09
2023-02-17T16:36:52.040Z,100416.37
2023-02-17T16:39:21.022Z,100412.06
2023-02-17T16:41:49.118Z,100402.50
2023-02-17T16:44:19.139Z,100401.62
2023-02-17T16:46:49.024Z,100409.44
2023-02-17T16:49:20.231Z,100392.00
2023-02-17T16:51:47.637Z,100388.50
2023-02-17T16:54:16.437Z,100393.75
2023-02-17T16:56:47.238Z,100390.34
2023-02-17T16:59:16.739Z,100392.94
2023-02-17T17:01:45.755Z,100384.25
2023-02-17T17:04:17.396Z,100385.09
2023-02-17T17:06:51.169Z,100383.34
2023-02-17T17:09:21.821Z,100381.66
2023-02-17T17:11:50.336Z,100385.13
2023-02-17T17:14:20.579Z,100380.81
2023-02-17T17:16:57.924Z,100384.25
2023-02-17T17:19:25.471Z,100373.81
2023-02-17T17:21:53.193Z,100368.59
2023-02-17T17:24:20.634Z,100365.97
2023-02-17T17:26:50.144Z,100365.97
2023-02-17T17:29:19.070Z,100359.91
2023-02-17T17:31:46.763Z,100361.63
2023-02-17T17:34:14.341Z,100355.53
2023-02-17T17:36:44.501Z,100372.03
2023-02-17T17:39:17.767Z,100370.28
2023-02-17T17:41:46.871Z,100372.91
2023-02-17T17:44:14.951Z,100364.19
2023-02-17T17:46:42.692Z,100358.94
2023-02-17T17:49:13.257Z,100358.94
2023-02-17T17:51:41.026Z,100361.53
2023-02-17T17:54:09.310Z,100365.84
2023-02-17T17:56:42.906Z,100360.62
2023-02-17T17:59:11.470Z,100358.06
2023-02-17T18:01:39.828Z,100357.16
2023-02-17T18:04:09.336Z,100352.81
2023-02-17T18:06:43.688Z,100353.66
2023-02-17T18:09:30.322Z,100346.72
2023-02-17T18:12:01.810Z,100347.56
2023-02-17T18:14:29.704Z,100340.56
2023-02-17T18:16:58.069Z,100340.62
2023-02-17T18:19:26.398Z,100343.19
2023-02-17T18:21:54.590Z,100337.97
2023-02-17T18:24:22.028Z,100346.63
2023-02-17T18:26:52.028Z,100345.78
2023-02-17T18:29:20.672Z,100341.38
2023-02-17T18:31:49.025Z,100337.84
2023-02-17T18:34:16.910Z,100337.88
2023-02-17T18:36:44.740Z,100342.22
2023-02-17T18:39:12.671Z,100337.00
2023-02-17T18:41:40.703Z,100332.69
2023-02-17T18:44:13.614Z,100333.56
2023-02-17T18:46:41.200Z,100327.50
2023-02-17T18:49:09.003Z,100327.50
2023-02-17T18:51:36.460Z,100310.22
2023-02-17T18:54:03.995Z,100303.22
2023-02-17T18:56:33.242Z,100305.00
2023-02-17T18:59:01.518Z,100312.78
2023-02-17T19:01:32.166Z,100305.84
2023-02-17T19:03:59.869Z,100301.50
2023-02-17T19:06:29.370Z,100301.50
2023-02-17T19:08:57.217Z,100301.50
2023-02-17T19:11:25.493Z,100291.03
2023-02-17T19:13:53.218Z,100298.91
2023-02-17T19:16:25.870Z,100294.56
2023-02-17T19:18:54.324Z,100294.53
2023-02-17T19:21:22.269Z,100289.31
2023-02-17T19:23:51.204Z,100286.62
2023-02-17T19:26:19.049Z,100291.84
2023-02-17T19:28:46.944Z,100302.31
2023-02-17T19:31:20.869Z,100304.09
2023-02-17T19:33:48.660Z,100297.13
2023-02-17T19:36:21.641Z,100294.59
2023-02-17T19:38:50.239Z,100289.34
2023-02-17T19:41:19.637Z,100291.06
2023-02-17T19:43:47.171Z,100293.72
2023-02-17T19:46:18.247Z,100296.22
2023-02-17T19:48:45.920Z,100295.41
2023-02-17T19:51:16.562Z,100275.44
2023-02-17T19:53:44.310Z,100273.75
2023-02-17T19:56:18.043Z,100260.72
2023-02-17T19:58:46.314Z,100270.25
2023-02-17T20:01:19.559Z,100268.56
2023-02-17T20:03:47.233Z,100260.72
2023-02-17T20:06:18.116Z,100251.16
2023-02-17T20:08:46.013Z,100250.28
2023-02-17T20:11:14.676Z,100246.81
2023-02-17T20:13:46.186Z,100236.38
2023-02-17T20:16:15.990Z,100235.44
2023-02-17T20:18:48.500Z,100224.97
2023-02-17T20:21:19.568Z,100211.00
2023-02-17T20:23:46.927Z,100208.38
2023-02-17T20:26:20.101Z,100208.41
2023-02-17T20:28:48.376Z,100208.44
2023-02-17T20:31:16.238Z,100183.22
2023-02-17T20:33:44.805Z,100189.34
2023-02-17T20:36:12.581Z,100189.28
2023-02-17T20:38:40.629Z,100188.44
2023-02-17T20:41:10.032Z,100175.38
2023-02-17T20:43:38.356Z,100180.63
2023-02-17T20:46:06.144Z,100171.94
2023-02-17T20:48:33.946Z,100170.97
2023-02-17T20:51:03.865Z,100176.22
2023-02-17T20:53:31.350Z,100179.66
2023-02-17T20:55:58.756Z,100180.53
2023-02-17T20:58:26.469Z,100176.25
2023-02-17T21:00:53.899Z,100174.50
2023-02-17T21:03:21.343Z,100183.19
2023-02-17T21:05:49.244Z,100168.34
2023-02-17T21:08:16.660Z,100170.97
2023-02-17T21:10:44.135Z,100180.47
2023-02-17T21:13:11.885Z,100185.72
2023-02-17T21:15:39.322Z,100174.53
2023-02-17T21:18:08.738Z,100177.94
2023-02-17T21:20:36.662Z,100189.28
2023-02-17T21:23:04.233Z,100191.91
2023-02-17T21:25:31.603Z,100178.84
2023-02-17T21:27:59.510Z,100187.50
2023-02-17T21:30:29.248Z,100177.91
2023-02-17T21:32:56.900Z,100182.28
2023-02-17T21:35:24.528Z,100176.19
2023-02-17T21:37:52.001Z,100188.44
2023-02-17T21:40:19.716Z,100198.00
2023-02-17T21:43:05.925Z,100204.97
2023-02-17T21:45:38.261Z,100211.91
2023-02-17T21:48:07.374Z,100214.63
2023-02-17T21:50:34.745Z,100224.19
2023-02-17T21:53:02.184Z,100219.75
2023-02-17T21:55:29.890Z,100222.38
2023-02-17T21:57:57.306Z,100226.69
2023-02-17T22:00:24.862Z,100227.63
2023-02-17T22:02:52.579Z,100227.63
2023-02-17T22:05:20.004Z,100223.25
2023-02-17T22:07:51.048Z,100215.44
2023-02-17T22:10:18.822Z,100221.56
2023-02-17T22:12:46.249Z,100230.25
2023-02-17T22:15:16.069Z,100249.38
2023-02-17T22:17:44.024Z,100250.31
2023-02-17T22:20:12.038Z,100259.84
2023-02-17T22:22:39.425Z,100246.81
2023-02-17T22:25:07.152Z,100239.81
2023-02-17T22:27:34.604Z,100226.78
2023-02-17T22:30:02.397Z,100221.53
2023-02-17T22:32:30.182Z,100220.69
2023-02-17T22:34:57.593Z,100217.22
2023-02-17T22:37:24.984Z,100222.41
2023-02-17T22:39:53.946Z,100214.59
2023-02-17T22:42:22.692Z,100212.84
2023-02-17T22:44:50.228Z,100205.88
2023-02-17T22:47:18.085Z,100225.91
2023-02-17T22:49:45.479Z,100221.59
2023-02-17T22:52:13.003Z,100224.09
2023-02-17T22:54:41.010Z,100224.97
2023-02-17T22:57:08.382Z,100222.38
2023-02-17T22:59:35.749Z,100224.09
2023-02-17T23:02:03.428Z,100231.06
2023-02-17T23:04:30.979Z,100224.94
2023-02-17T23:06:59.090Z,100223.19
2023-02-17T23:09:26.730Z,100218.03
2023-02-17T23:11:54.537Z,100210.19
2023-02-17T23:14:26.915Z,100196.25
2023-02-17T23:16:55.699Z,100184.03
2023-02-17T23:19:23.663Z,100181.38
2023-02-17T23:21:53.578Z,100177.81
2023-02-17T23:24:22.312Z,100197.88
2023-02-17T23:26:50.420Z,100191.69
2023-02-17T23:29:18.614Z,100193.47
2023-02-17T23:31:46.704Z,100191.81
2023-02-17T23:34:15.818Z,100165.53
2023-02-17T23:36:44.162Z,100172.59
2023-02-17T23:39:12.870Z,100176.97
2023-02-17T23:41:40.358Z,100168.19
2023-02-17T23:44:10.052Z,100157.00
2023-02-17T23:46:38.168Z,100150.03
2023-02-17T23:49:06.030Z,100151.75
2023-02-17T23:51:33.431Z,100150.91
2023-02-17T23:54:01.216Z,100154.38
2023-02-17T23:56:31.447Z,100143.91
2023-02-17T23:58:59.206Z,100150.00
